sensor_id;sensor_type;location;lat;lon;timestamp;pressure;altitude;pressure_sealevel;temperature;humidity
40992;BME280;29633;49.168;9.848;2023-03-17T00:00:40;96652.84;;;9.60;61.55
40992;BME280;29633;49.168;9.848;2023-03-17T00:03:09;96655.44;;;9.60;61.62
40992;BME280;29633;49.168;9.848;2023-03-17T00:05:35;96656.38;;;9.59;61.56
40992;BME280;29633;49.168;9.848;2023-03-17T00:08:17;96643.56;;;9.58;61.61
40992;BME280;29633;49.168;9.848;2023-03-17T00:10:44;96654.75;;;9.58;61.68
40992;BME280;29633;49.168;9.848;2023-03-17T00:13:10;96647.94;;;9.57;61.72
40992;BME280;29633;49.168;9.848;2023-03-17T00:15:37;96652.16;;;9.58;61.53
40992;BME280;29633;49.168;9.848;2023-03-17T00:18:03;96649.69;;;9.57;61.51
40992;BME280;29633;49.168;9.848;2023-03-17T00:20:30;96656.75;;;9.55;61.53
40992;BME280;29633;49.168;9.848;2023-03-17T00:22:58;96655.09;;;9.54;61.71
40992;BME280;29633;49.168;9.848;2023-03-17T00:25:28;96652.53;;;9.54;61.68
40992;BME280;29633;49.168;9.848;2023-03-17T00:27:55;96645.69;;;9.53;61.64
40992;BME280;29633;49.168;9.848;2023-03-17T00:30:21;96644.03;;;9.52;61.76
40992;BME280;29633;49.168;9.848;2023-03-17T00:32:48;96643.25;;;9.51;61.96
40992;BME280;29633;49.168;9.848;2023-03-17T00:35:16;96635.69;;;9.48;61.80
40992;BME280;29633;49.168;9.848;2023-03-17T00:37:44;96631.47;;;9.47;61.85
40992;BME280;29633;49.168;9.848;2023-03-17T00:40:25;96635.81;;;9.47;61.67
40992;BME280;29633;49.168;9.848;2023-03-17T00:42:51;96628.91;;;9.47;61.90
40992;BME280;29633;49.168;9.848;2023-03-17T00:45:18;96627.94;;;9.48;61.57
40992;BME280;29633;49.168;9.848;2023-03-17T00:47:44;96620.31;;;9.47;61.68
40992;BME280;29633;49.168;9.848;2023-03-17T00:50:12;96617.81;;;9.45;61.80
40992;BME280;29633;49.168;9.848;2023-03-17T00:52:39;96618.75;;;9.44;61.92
40992;BME280;29633;49.168;9.848;2023-03-17T00:55:08;96613.72;;;9.43;61.77
40992;BME280;29633;49.168;9.848;2023-03-17T00:57:36;96607.81;;;9.40;61.91
40992;BME280;29633;49.168;9.848;2023-03-17T01:00:03;96599.38;;;9.38;61.73
40992;BME280;29633;49.168;9.848;2023-03-17T01:02:28;96605.63;;;9.36;61.83
40992;BME280;29633;49.168;9.848;2023-03-17T01:04:56;96597.88;;;9.36;61.86
40992;BME280;29633;49.168;9.848;2023-03-17T01:07:23;96589.38;;;9.34;61.88
40992;BME280;29633;49.168;9.848;2023-03-17T01:09:49;96605.72;;;9.34;61.85
40992;BME280;29633;49.168;9.848;2023-03-17T01:12:15;96596.47;;;9.32;61.79
40992;BME280;29633;49.168;9.848;2023-03-17T01:14:40;96591.38;;;9.30;61.99
40992;BME280;29633;49.168;9.848;2023-03-17T01:17:14;96596.69;;;9.29;61.90
40992;BME280;29633;49.168;9.848;2023-03-17T01:19:41;96584.81;;;9.26;61.89
40992;BME280;29633;49.168;9.848;2023-03-17T01:22:07;96589.88;;;9.28;61.83
40992;BME280;29633;49.168;9.848;2023-03-17T01:24:33;96589.03;;;9.27;62.02
40992;BME280;29633;49.168;9.848;2023-03-17T01:26:59;96583.03;;;9.27;61.97
40992;BME280;29633;49.168;9.848;2023-03-17T01:29:24;96587.97;;;9.30;61.88
40992;BME280;29633;49.168;9.848;2023-03-17T01:31:51;96587.19;;;9.29;61.75
40992;BME280;29633;49.168;9.848;2023-03-17T01:34:17;96583.03;;;9.27;61.75
40992;BME280;29633;49.168;9.848;2023-03-17T01:36:43;96577.03;;;9.26;61.86
40992;BME280;29633;49.168;9.848;2023-03-17T01:39:09;96573.88;;;9.23;61.91
40992;BME280;29633;49.168;9.848;2023-03-17T01:41:35;96571.28;;;9.23;62.02
40992;BME280;29633;49.168;9.848;2023-03-17T01:44:03;96577.44;;;9.22;61.66
40992;BME280;29633;49.168;9.848;2023-03-17T01:49:09;96570.59;;;9.21;61.90
40992;BME280;29633;49.168;9.848;2023-03-17T01:54:29;96561.78;;;9.23;61.84
40992;BME280;29633;49.168;9.848;2023-03-17T01:57:09;96569.44;;;9.25;61.86
40992;BME280;29633;49.168;9.848;2023-03-17T01:59:41;96562.50;;;9.25;61.86
40992;BME280;29633;49.168;9.848;2023-03-17T02:02:10;96563.19;;;9.27;61.78
40992;BME280;29633;49.168;9.848;2023-03-17T02:04:37;96560.47;;;9.29;62.04
40992;BME280;29633;49.168;9.848;2023-03-17T02:07:03;96556.94;;;9.30;61.83
40992;BME280;29633;49.168;9.848;2023-03-17T02:09:29;96559.41;;;9.31;61.90
40992;BME280;29633;49.168;9.848;2023-03-17T02:11:55;96553.41;;;9.31;61.79
40992;BME280;29633;49.168;9.848;2023-03-17T02:14:22;96553.56;;;9.29;61.86
40992;BME280;29633;49.168;9.848;2023-03-17T02:16:48;96556.25;;;9.28;62.14
40992;BME280;29633;49.168;9.848;2023-03-17T02:19:14;96551.91;;;9.28;62.02
40992;BME280;29633;49.168;9.848;2023-03-17T02:21:47;96546.84;;;9.27;62.09
40992;BME280;29633;49.168;9.848;2023-03-17T02:24:36;96539.06;;;9.27;62.13
40992;BME280;29633;49.168;9.848;2023-03-17T02:27:20;96540.84;;;9.26;62.13
40992;BME280;29633;49.168;9.848;2023-03-17T02:29:48;96535.81;;;9.25;62.17
40992;BME280;29633;49.168;9.848;2023-03-17T02:32:16;96529.91;;;9.23;62.01
40992;BME280;29633;49.168;9.848;2023-03-17T02:34:44;96523.94;;;9.22;62.21
40992;BME280;29633;49.168;9.848;2023-03-17T02:37:10;96530.16;;;9.20;62.14
40992;BME280;29633;49.168;9.848;2023-03-17T02:39:35;96524.16;;;9.19;62.21
40992;BME280;29633;49.168;9.848;2023-03-17T02:42:02;96523.34;;;9.19;62.32
40992;BME280;29633;49.168;9.848;2023-03-17T02:44:28;96524.97;;;9.20;62.06
40992;BME280;29633;49.168;9.848;2023-03-17T02:46:54;96518.06;;;9.20;62.16
40992;BME280;29633;49.168;9.848;2023-03-17T02:49:19;96514.63;;;9.20;62.21
40992;BME280;29633;49.168;9.848;2023-03-17T02:51:46;96512.19;;;9.18;62.26
40992;BME280;29633;49.168;9.848;2023-03-17T02:54:12;96514.63;;;9.20;62.11
40992;BME280;29633;49.168;9.848;2023-03-17T02:56:38;96509.47;;;9.20;62.12
40992;BME280;29633;49.168;9.848;2023-03-17T02:59:04;96509.47;;;9.20;62.16
40992;BME280;29633;49.168;9.848;2023-03-17T03:01:29;96509.59;;;9.18;62.24
40992;BME280;29633;49.168;9.848;2023-03-17T03:03:56;96518.06;;;9.20;62.32
40992;BME280;29633;49.168;9.848;2023-03-17T03:06:24;96516.28;;;9.21;62.29
40992;BME280;29633;49.168;9.848;2023-03-17T03:08:50;96521.47;;;9.21;62.27
40992;BME280;29633;49.168;9.848;2023-03-17T03:11:16;96516.28;;;9.21;62.33
40992;BME280;29633;49.168;9.848;2023-03-17T03:13:42;96512.78;;;9.22;62.22
40992;BME280;29633;49.168;9.848;2023-03-17T03:16:08;96510.03;;;9.23;62.41
40992;BME280;29633;49.168;9.848;2023-03-17T03:18:34;96512.53;;;9.25;62.17
40992;BME280;29633;49.168;9.848;2023-03-17T03:21:00;96509.00;;;9.26;62.26
40992;BME280;29633;49.168;9.848;2023-03-17T03:23:26;96503.00;;;9.25;62.08
40992;BME280;29633;49.168;9.848;2023-03-17T03:25:52;96501.25;;;9.26;62.33
40992;BME280;29633;49.168;9.848;2023-03-17T03:28:17;96513.22;;;9.27;62.38
40992;BME280;29633;49.168;9.848;2023-03-17T03:30:43;96505.19;;;9.30;62.40
40992;BME280;29633;49.168;9.848;2023-03-17T03:33:11;96500.84;;;9.30;62.38
40992;BME280;29633;49.168;9.848;2023-03-17T03:35:37;96501.56;;;9.32;62.27
40992;BME280;29633;49.168;9.848;2023-03-17T03:38:05;96499.66;;;9.34;62.39
40992;BME280;29633;49.168;9.848;2023-03-17T03:40:31;96502.16;;;9.36;62.05
40992;BME280;29633;49.168;9.848;2023-03-17T03:42:57;96495.06;;;9.38;62.29
40992;BME280;29633;49.168;9.848;2023-03-17T03:45:22;96495.78;;;9.40;62.35
40992;BME280;29633;49.168;9.848;2023-03-17T03:47:48;96485.56;;;9.38;62.34
40992;BME280;29633;49.168;9.848;2023-03-17T03:50:14;96489.22;;;9.36;62.36
40992;BME280;29633;49.168;9.848;2023-03-17T03:52:39;96489.31;;;9.34;62.35
40992;BME280;29633;49.168;9.848;2023-03-17T03:55:05;96486.75;;;9.34;62.58
40992;BME280;29633;49.168;9.848;2023-03-17T03:57:31;96478.03;;;9.35;62.33
40992;BME280;29633;49.168;9.848;2023-03-17T03:59:57;96490.03;;;9.36;62.53
40992;BME280;29633;49.168;9.848;2023-03-17T04:02:22;96484.03;;;9.36;62.40
40992;BME280;29633;49.168;9.848;2023-03-17T04:04:48;96482.28;;;9.36;62.23
40992;BME280;29633;49.168;9.848;2023-03-17T04:07:14;96489.22;;;9.36;62.29
40992;BME280;29633;49.168;9.848;2023-03-17T04:09:40;96489.22;;;9.36;62.34
40992;BME280;29633;49.168;9.848;2023-03-17T04:12:06;96479.81;;;9.35;62.35
40992;BME280;29633;49.168;9.848;2023-03-17T04:14:32;96488.50;;;9.34;62.12
40992;BME280;29633;49.168;9.848;2023-03-17T04:16:58;96485.91;;;9.34;62.28
40992;BME280;29633;49.168;9.848;2023-03-17T04:19:23;96480.75;;;9.34;62.35
40992;BME280;29633;49.168;9.848;2023-03-17T04:21:49;96471.47;;;9.31;62.37
40992;BME280;29633;49.168;9.848;2023-03-17T04:24:15;96481.56;;;9.34;62.36
40992;BME280;29633;49.168;9.848;2023-03-17T04:26:41;96483.06;;;9.37;62.30
40992;BME280;29633;49.168;9.848;2023-03-17T04:29:07;96478.38;;;9.42;62.30
40992;BME280;29633;49.168;9.848;2023-03-17T04:31:34;96483.44;;;9.44;62.20
40992;BME280;29633;49.168;9.848;2023-03-17T04:34:00;96490.22;;;9.45;62.11
40992;BME280;29633;49.168;9.848;2023-03-17T04:36:26;96497.41;;;9.41;62.33
40992;BME280;29633;49.168;9.848;2023-03-17T04:38:52;96500.81;;;9.42;62.36
40992;BME280;29633;49.168;9.848;2023-03-17T04:41:18;96494.97;;;9.39;62.10
40992;BME280;29633;49.168;9.848;2023-03-17T04:43:44;96488.03;;;9.40;62.06
40992;BME280;29633;49.168;9.848;2023-03-17T04:46:09;96484.72;;;9.38;62.23
40992;BME280;29633;49.168;9.848;2023-03-17T04:48:36;96495.22;;;9.36;62.07
40992;BME280;29633;49.168;9.848;2023-03-17T04:51:01;96493.09;;;9.30;62.27
40992;BME280;29633;49.168;9.848;2023-03-17T04:53:27;96491.84;;;9.25;62.42
40992;BME280;29633;49.168;9.848;2023-03-17T04:55:53;96501.84;;;9.18;62.33
40992;BME280;29633;49.168;9.848;2023-03-17T04:58:19;96494.19;;;9.17;62.46
40992;BME280;29633;49.168;9.848;2023-03-17T05:00:44;96489.13;;;9.15;62.27
40992;BME280;29633;49.168;9.848;2023-03-17T05:03:10;96481.38;;;9.15;62.47
40992;BME280;29633;49.168;9.848;2023-03-17T05:05:36;96486.56;;;9.15;62.27
40992;BME280;29633;49.168;9.848;2023-03-17T05:08:04;96482.34;;;9.14;62.23
40992;BME280;29633;49.168;9.848;2023-03-17T05:10:30;96482.81;;;9.08;62.26
40992;BME280;29633;49.168;9.848;2023-03-17T05:12:55;96481.53;;;9.03;62.18
40992;BME280;29633;49.168;9.848;2023-03-17T05:15:21;96480.84;;;9.01;62.34
40992;BME280;29633;49.168;9.848;2023-03-17T05:17:47;96480.84;;;9.01;62.12
40992;BME280;29633;49.168;9.848;2023-03-17T05:20:12;96478.47;;;8.98;62.07
40992;BME280;29633;49.168;9.848;2023-03-17T05:22:39;96474.13;;;8.98;62.16
40992;BME280;29633;49.168;9.848;2023-03-17T05:25:05;96474.03;;;9.00;62.09
40992;BME280;29633;49.168;9.848;2023-03-17T05:27:31;96473.09;;;9.01;62.00
40992;BME280;29633;49.168;9.848;2023-03-17T05:29:57;96478.13;;;9.02;61.92
40992;BME280;29633;49.168;9.848;2023-03-17T05:32:23;96475.44;;;9.04;61.93
40992;BME280;29633;49.168;9.848;2023-03-17T05:34:49;96467.69;;;9.04;61.81
40992;BME280;29633;49.168;9.848;2023-03-17T05:37:14;96466.03;;;9.03;62.01
40992;BME280;29633;49.168;9.848;2023-03-17T05:39:41;96467.94;;;9.01;62.13
40992;BME280;29633;49.168;9.848;2023-03-17T05:42:06;96465.34;;;9.01;61.84
40992;BME280;29633;49.168;9.848;2023-03-17T05:44:33;96469.53;;;9.02;61.79
40992;BME280;29633;49.168;9.848;2023-03-17T05:46:59;96468.72;;;9.01;61.86
40992;BME280;29633;49.168;9.848;2023-03-17T05:49:26;96467.78;;;9.02;61.80
40992;BME280;29633;49.168;9.848;2023-03-17T05:51:53;96477.44;;;9.00;61.67
40992;BME280;29633;49.168;9.848;2023-03-17T05:54:20;96478.28;;;9.01;61.66
40992;BME280;29633;49.168;9.848;2023-03-17T05:56:46;96476.63;;;9.00;61.65
40992;BME280;29633;49.168;9.848;2023-03-17T05:59:11;96473.09;;;9.01;61.68
40992;BME280;29633;49.168;9.848;2023-03-17T06:01:40;96481.53;;;9.03;61.67
40992;BME280;29633;49.168;9.848;2023-03-17T06:04:05;96483.19;;;9.04;61.64
40992;BME280;29633;49.168;9.848;2023-03-17T06:06:32;96495.88;;;9.07;61.61
40992;BME280;29633;49.168;9.848;2023-03-17T06:08:58;96496.56;;;9.09;61.36
40992;BME280;29633;49.168;9.848;2023-03-17T06:11:24;96500.78;;;9.10;61.63
40992;BME280;29633;49.168;9.848;2023-03-17T06:13:51;96499.03;;;9.10;61.73
40992;BME280;29633;49.168;9.848;2023-03-17T06:16:16;96492.22;;;9.09;61.80
40992;BME280;29633;49.168;9.848;2023-03-17T06:18:42;96483.38;;;9.12;61.76
40992;BME280;29633;49.168;9.848;2023-03-17T06:21:08;96489.97;;;9.16;61.68
40992;BME280;29633;49.168;9.848;2023-03-17T06:23:34;96485.50;;;9.18;61.69
40992;BME280;29633;49.168;9.848;2023-03-17T06:26:01;96482.31;;;9.25;61.71
40992;BME280;29633;49.168;9.848;2023-03-17T06:28:26;96484.50;;;9.30;61.53
40992;BME280;29633;49.168;9.848;2023-03-17T06:30:52;96488.38;;;9.35;61.62
40992;BME280;29633;49.168;9.848;2023-03-17T06:33:17;96484.47;;;9.41;61.81
40992;BME280;29633;49.168;9.848;2023-03-17T06:35:43;96479.66;;;9.48;61.56
40992;BME280;29633;49.168;9.848;2023-03-17T06:38:09;96471.38;;;9.54;61.60
40992;BME280;29633;49.168;9.848;2023-03-17T06:40:35;96464.88;;;9.59;61.76
40992;BME280;29633;49.168;9.848;2023-03-17T06:43:01;96474.97;;;9.62;61.74
40992;BME280;29633;49.168;9.848;2023-03-17T06:45:27;96476.53;;;9.65;61.61
40992;BME280;29633;49.168;9.848;2023-03-17T06:47:53;96478.03;;;9.67;61.79
40992;BME280;29633;49.168;9.848;2023-03-17T06:50:19;96490.59;;;9.72;61.77
40992;BME280;29633;49.168;9.848;2023-03-17T06:52:45;96495.41;;;9.76;61.70
40992;BME280;29633;49.168;9.848;2023-03-17T06:55:11;96485.47;;;9.81;61.77
40992;BME280;29633;49.168;9.848;2023-03-17T06:57:37;96481.59;;;9.87;61.75
40992;BME280;29633;49.168;9.848;2023-03-17T07:00:03;96490.75;;;9.91;61.81
40992;BME280;29633;49.168;9.848;2023-03-17T07:02:31;96503.03;;;9.99;61.55
40992;BME280;29633;49.168;9.848;2023-03-17T07:04:58;96497.50;;;10.03;61.71
40992;BME280;29633;49.168;9.848;2023-03-17T07:07:26;96505.56;;;10.10;61.76
40992;BME280;29633;49.168;9.848;2023-03-17T07:09:52;96500.16;;;10.13;61.61
40992;BME280;29633;49.168;9.848;2023-03-17T07:12:19;96503.66;;;10.23;61.77
40992;BME280;29633;49.168;9.848;2023-03-17T07:14:44;96495.63;;;10.26;61.88
40992;BME280;29633;49.168;9.848;2023-03-17T07:17:11;96492.66;;;10.30;61.48
40992;BME280;29633;49.168;9.848;2023-03-17T07:19:37;96487.34;;;10.32;61.94
40992;BME280;29633;49.168;9.848;2023-03-17T07:22:03;96485.69;;;10.31;61.80
40992;BME280;29633;49.168;9.848;2023-03-17T07:24:29;96488.97;;;10.33;62.08
40992;BME280;29633;49.168;9.848;2023-03-17T07:26:55;96487.06;;;10.35;62.09
40992;BME280;29633;49.168;9.848;2023-03-17T07:29:21;96493.91;;;10.36;62.09
40992;BME280;29633;49.168;9.848;2023-03-17T07:31:47;96486.69;;;10.40;61.88
40992;BME280;29633;49.168;9.848;2023-03-17T07:34:14;96485.38;;;10.45;61.82
40992;BME280;29633;49.168;9.848;2023-03-17T07:36:40;96479.41;;;10.54;61.79
40992;BME280;29633;49.168;9.848;2023-03-17T07:39:06;96483.81;;;10.63;61.92
40992;BME280;29633;49.168;9.848;2023-03-17T07:41:32;96485.88;;;10.69;62.01
40992;BME280;29633;49.168;9.848;2023-03-17T07:43:57;96482.47;;;10.78;62.15
40992;BME280;29633;49.168;9.848;2023-03-17T07:46:23;96475.31;;;10.92;62.14
40992;BME280;29633;49.168;9.848;2023-03-17T07:48:49;96475.75;;;11.06;61.84
40992;BME280;29633;49.168;9.848;2023-03-17T07:51:19;96478.47;;;11.14;62.00
40992;BME280;29633;49.168;9.848;2023-03-17T07:53:47;96480.16;;;11.25;61.75
40992;BME280;29633;49.168;9.848;2023-03-17T07:56:15;96477.41;;;11.36;61.58
40992;BME280;29633;49.168;9.848;2023-03-17T07:58:42;96476.34;;;11.48;61.85
40992;BME280;29633;49.168;9.848;2023-03-17T08:01:08;96475.28;;;11.60;61.87
40992;BME280;29633;49.168;9.848;2023-03-17T08:03:34;96479.53;;;11.71;61.73
40992;BME280;29633;49.168;9.848;2023-03-17T08:06:01;96475.81;;;11.83;61.72
40992;BME280;29633;49.168;9.848;2023-03-17T08:08:28;96472.28;;;11.94;61.68
40992;BME280;29633;49.168;9.848;2023-03-17T08:11:00;96463.22;;;12.07;61.45
40992;BME280;29633;49.168;9.848;2023-03-17T08:13:26;96467.44;;;12.18;61.75
40992;BME280;29633;49.168;9.848;2023-03-17T08:15:52;96469.19;;;12.27;61.74
40992;BME280;29633;49.168;9.848;2023-03-17T08:18:17;96459.84;;;12.34;61.57
40992;BME280;29633;49.168;9.848;2023-03-17T08:20:43;96457.38;;;12.42;61.56
40992;BME280;29633;49.168;9.848;2023-03-17T08:23:09;96452.41;;;12.49;61.81
40992;BME280;29633;49.168;9.848;2023-03-17T08:25:34;96447.75;;;12.52;61.89
40992;BME280;29633;49.168;9.848;2023-03-17T08:28:01;96447.19;;;12.58;61.89
40992;BME280;29633;49.168;9.848;2023-03-17T08:30:28;96449.22;;;12.64;61.92
40992;BME280;29633;49.168;9.848;2023-03-17T08:32:55;96444.13;;;12.72;61.71
40992;BME280;29633;49.168;9.848;2023-03-17T08:35:21;96452.28;;;12.77;61.96
40992;BME280;29633;49.168;9.848;2023-03-17T08:37:46;96449.13;;;12.83;61.76
40992;BME280;29633;49.168;9.848;2023-03-17T08:40:15;96458.97;;;12.90;61.82
40992;BME280;29633;49.168;9.848;2023-03-17T08:42:45;96453.16;;;12.96;61.54
40992;BME280;29633;49.168;9.848;2023-03-17T08:45:12;96456.56;;;13.06;61.71
40992;BME280;29633;49.168;9.848;2023-03-17T08:47:41;96458.44;;;13.13;61.59
40992;BME280;29633;49.168;9.848;2023-03-17T08:50:09;96452.66;;;13.19;61.50
40992;BME280;29633;49.168;9.848;2023-03-17T08:52:37;96449.59;;;13.24;61.58
40992;BME280;29633;49.168;9.848;2023-03-17T08:55:04;96444.63;;;13.30;61.51
40992;BME280;29633;49.168;9.848;2023-03-17T08:57:31;96445.38;;;13.41;61.48
40992;BME280;29633;49.168;9.848;2023-03-17T08:59:59;96439.78;;;13.53;61.28
40992;BME280;29633;49.168;9.848;2023-03-17T09:02:24;96444.03;;;13.72;61.18
40992;BME280;29633;49.168;9.848;2023-03-17T09:04:51;96448.56;;;13.88;61.11
40992;BME280;29633;49.168;9.848;2023-03-17T09:07:19;96448.66;;;14.04;61.10
40992;BME280;29633;49.168;9.848;2023-03-17T09:09:45;96443.56;;;14.20;60.67
40992;BME280;29633;49.168;9.848;2023-03-17T09:12:10;96453.97;;;14.38;60.81
40992;BME280;29633;49.168;9.848;2023-03-17T09:14:36;96449.13;;;14.51;60.67
40992;BME280;29633;49.168;9.848;2023-03-17T09:17:04;96443.50;;;14.63;60.88
40992;BME280;29633;49.168;9.848;2023-03-17T09:19:29;96440.16;;;14.79;60.54
40992;BME280;29633;49.168;9.848;2023-03-17T09:21:55;96438.56;;;14.94;60.59
40992;BME280;29633;49.168;9.848;2023-03-17T09:24:21;96445.00;;;15.08;60.50
40992;BME280;29633;49.168;9.848;2023-03-17T09:26:47;96440.13;;;15.21;60.52
40992;BME280;29633;49.168;9.848;2023-03-17T09:29:12;96432.00;;;15.32;60.54
40992;BME280;29633;49.168;9.848;2023-03-17T09:31:39;96431.34;;;15.46;60.50
40992;BME280;29633;49.168;9.848;2023-03-17T09:34:05;96432.72;;;15.58;60.60
40992;BME280;29633;49.168;9.848;2023-03-17T09:36:32;96432.22;;;15.71;60.64
40992;BME280;29633;49.168;9.848;2023-03-17T09:38:58;96435.31;;;15.83;60.59
40992;BME280;29633;49.168;9.848;2023-03-17T09:47:27;96440.88;;;16.20;60.70
40992;BME280;29633;49.168;9.848;2023-03-17T09:50:00;96441.78;;;16.35;60.76
40992;BME280;29633;49.168;9.848;2023-03-17T09:52:29;96437.03;;;16.47;60.77
40992;BME280;29633;49.168;9.848;2023-03-17T09:54:55;96440.63;;;16.62;60.59
40992;BME280;29633;49.168;9.848;2023-03-17T09:57:31;96431.91;;;16.78;60.52
40992;BME280;29633;49.168;9.848;2023-03-17T10:00:04;96430.38;;;16.91;60.78
40992;BME280;29633;49.168;9.848;2023-03-17T10:02:33;96431.28;;;17.06;60.71
40992;BME280;29633;49.168;9.848;2023-03-17T10:05:26;96422.00;;;17.27;60.57
40992;BME280;29633;49.168;9.848;2023-03-17T10:08:00;96418.09;;;17.45;60.68
40992;BME280;29633;49.168;9.848;2023-03-17T10:10:43;96421.13;;;17.65;60.48
40992;BME280;29633;49.168;9.848;2023-03-17T10:16:13;96413.44;;;18.01;60.76
40992;BME280;29633;49.168;9.848;2023-03-17T10:18:45;96411.84;;;18.14;60.79
40992;BME280;29633;49.168;9.848;2023-03-17T10:21:19;96418.75;;;18.30;60.64
40992;BME280;29633;49.168;9.848;2023-03-17T10:23:48;96413.03;;;18.41;60.62
40992;BME280;29633;49.168;9.848;2023-03-17T10:26:30;96409.66;;;18.55;60.49
40992;BME280;29633;49.168;9.848;2023-03-17T10:28:58;96405.09;;;18.64;60.70
40992;BME280;29633;49.168;9.848;2023-03-17T10:31:32;96405.28;;;18.77;60.67
40992;BME280;29633;49.168;9.848;2023-03-17T10:34:14;96407.25;;;18.90;60.63
40992;BME280;29633;49.168;9.848;2023-03-17T10:36:43;96405.97;;;19.00;60.49
40992;BME280;29633;49.168;9.848;2023-03-17T10:39:13;96402.69;;;19.13;60.36
40992;BME280;29633;49.168;9.848;2023-03-17T10:41:55;96396.56;;;19.27;60.30
40992;BME280;29633;49.168;9.848;2023-03-17T10:46:54;96393.59;;;19.51;60.38
40992;BME280;29633;49.168;9.848;2023-03-17T10:49:20;96387.03;;;19.62;60.11
40992;BME280;29633;49.168;9.848;2023-03-17T10:51:48;96389.16;;;19.73;60.07
40992;BME280;29633;49.168;9.848;2023-03-17T10:54:16;96386.63;;;19.86;60.37
40992;BME280;29633;49.168;9.848;2023-03-17T10:56:42;96390.56;;;19.97;60.05
40992;BME280;29633;49.168;9.848;2023-03-17T10:59:18;96382.97;;;20.08;59.96
40992;BME280;29633;49.168;9.848;2023-03-17T11:01:52;96382.03;;;20.23;59.77
40992;BME280;29633;49.168;9.848;2023-03-17T11:04:32;96380.72;;;20.33;59.98
40992;BME280;29633;49.168;9.848;2023-03-17T11:07:05;96380.19;;;20.44;59.79
40992;BME280;29633;49.168;9.848;2023-03-17T11:09:36;96382.09;;;20.57;60.24
40992;BME280;29633;49.168;9.848;2023-03-17T11:12:10;96375.63;;;20.66;59.71
40992;BME280;29633;49.168;9.848;2023-03-17T11:14:43;96376.31;;;20.75;60.07
40992;BME280;29633;49.168;9.848;2023-03-17T11:17:23;96372.09;;;20.87;59.89
40992;BME280;29633;49.168;9.848;2023-03-17T11:19:59;96368.69;;;20.99;59.72
40992;BME280;29633;49.168;9.848;2023-03-17T11:22:39;96371.59;;;21.11;59.86
40992;BME280;29633;49.168;9.848;2023-03-17T11:25:17;96361.31;;;21.23;60.04
40992;BME280;29633;49.168;9.848;2023-03-17T11:28:20;96368.63;;;21.34;59.93
40992;BME280;29633;49.168;9.848;2023-03-17T11:38:59;96357.69;;;21.89;59.52
40992;BME280;29633;49.168;9.848;2023-03-17T11:49:41;96354.47;;;22.27;59.47
40992;BME280;29633;49.168;9.848;2023-03-17T11:52:50;96354.41;;;22.40;59.58
40992;BME280;29633;49.168;9.848;2023-03-17T11:55:34;96349.31;;;22.51;59.20
40992;BME280;29633;49.168;9.848;2023-03-17T11:58:04;96348.09;;;22.61;59.57
40992;BME280;29633;49.168;9.848;2023-03-17T12:00:38;96346.66;;;22.71;59.18
40992;BME280;29633;49.168;9.848;2023-03-17T12:05:35;96335.19;;;22.84;59.42
40992;BME280;29633;49.168;9.848;2023-03-17T12:08:31;96330.25;;;22.94;59.24
40992;BME280;29633;49.168;9.848;2023-03-17T12:11:00;96333.69;;;23.01;59.27
40992;BME280;29633;49.168;9.848;2023-03-17T12:13:31;96328.00;;;23.04;59.41
40992;BME280;29633;49.168;9.848;2023-03-17T12:16:03;96326.97;;;23.05;59.26
40992;BME280;29633;49.168;9.848;2023-03-17T12:18:35;96320.66;;;23.06;58.92
40992;BME280;29633;49.168;9.848;2023-03-17T12:27:18;96312.00;;;23.24;58.79
40992;BME280;29633;49.168;9.848;2023-03-17T12:30:13;96309.94;;;23.32;58.80
40992;BME280;29633;49.168;9.848;2023-03-17T12:32:47;96313.94;;;23.41;58.85
40992;BME280;29633;49.168;9.848;2023-03-17T12:35:32;96304.75;;;23.50;58.44
40992;BME280;29633;49.168;9.848;2023-03-17T12:38:01;96308.16;;;23.58;58.74
40992;BME280;29633;49.168;9.848;2023-03-17T12:40:44;96303.22;;;23.61;58.61
40992;BME280;29633;49.168;9.848;2023-03-17T12:43:27;96308.66;;;23.66;58.54
40992;BME280;29633;49.168;9.848;2023-03-17T12:54:30;96295.22;;;23.92;58.18
40992;BME280;29633;49.168;9.848;2023-03-17T12:57:10;96296.19;;;23.98;58.19
40992;BME280;29633;49.168;9.848;2023-03-17T12:59:42;96298.16;;;24.02;57.91
40992;BME280;29633;49.168;9.848;2023-03-17T13:04:53;96285.25;;;24.13;57.80
40992;BME280;29633;49.168;9.848;2023-03-17T13:07:43;96287.09;;;24.12;57.98
40992;BME280;29633;49.168;9.848;2023-03-17T13:10:17;96283.41;;;24.13;57.78
40992;BME280;29633;49.168;9.848;2023-03-17T13:23:41;96264.84;;;24.38;57.67
40992;BME280;29633;49.168;9.848;2023-03-17T13:26:10;96272.47;;;24.46;57.35
40992;BME280;29633;49.168;9.848;2023-03-17T13:34:05;96256.19;;;24.61;57.14
40992;BME280;29633;49.168;9.848;2023-03-17T13:45:45;96250.56;;;24.87;57.41
40992;BME280;29633;49.168;9.848;2023-03-17T13:53:53;96250.19;;;25.13;57.56
40992;BME280;29633;49.168;9.848;2023-03-17T14:04:39;96240.16;;;25.68;57.30
40992;BME280;29633;49.168;9.848;2023-03-17T14:07:14;96235.19;;;25.83;57.27
40992;BME280;29633;49.168;9.848;2023-03-17T14:09:41;96232.50;;;25.95;57.11
40992;BME280;29633;49.168;9.848;2023-03-17T14:12:19;96239.19;;;25.98;57.15
40992;BME280;29633;49.168;9.848;2023-03-17T14:15:03;96225.81;;;25.92;56.99
40992;BME280;29633;49.168;9.848;2023-03-17T14:17:35;96228.69;;;25.91;56.66
40992;BME280;29633;49.168;9.848;2023-03-17T14:20:17;96228.97;;;25.89;56.60
40992;BME280;29633;49.168;9.848;2023-03-17T14:22:46;96228.59;;;25.86;56.56
40992;BME280;29633;49.168;9.848;2023-03-17T14:25:21;96230.47;;;25.85;56.55
40992;BME280;29633;49.168;9.848;2023-03-17T14:27:52;96225.97;;;25.86;56.20
40992;BME280;29633;49.168;9.848;2023-03-17T14:30:26;96222.50;;;25.85;56.20
40992;BME280;29633;49.168;9.848;2023-03-17T14:33:23;96214.19;;;25.82;56.01
40992;BME280;29633;49.168;9.848;2023-03-17T14:35:52;96213.25;;;25.76;55.97
40992;BME280;29633;49.168;9.848;2023-03-17T14:38:20;96215.34;;;25.74;55.96
40992;BME280;29633;49.168;9.848;2023-03-17T14:40:47;96203.78;;;25.69;56.18
40992;BME280;29633;49.168;9.848;2023-03-17T14:43:13;96207.16;;;25.64;56.11
40992;BME280;29633;49.168;9.848;2023-03-17T14:45:47;96196.97;;;25.61;56.07